createdAt,value
2018-10-19T00:01:38.671Z,78.69
2018-10-19T00:04:06.775Z,78.93
2018-10-19T00:06:34.888Z,79.01
2018-10-19T00:09:03.482Z,78.70
2018-10-19T00:11:31.512Z,78.15
2018-10-19T00:13:59.595Z,78.60
2018-10-19T00:16:27.708Z,78.42
2018-10-19T00:18:55.782Z,78.28
2018-10-19T00:21:23.921Z,78.89
2018-10-19T00:23:51.999Z,79.36
2018-10-19T00:26:20.088Z,79.05
2018-10-19T00:28:48.180Z,78.46
2018-10-19T00:31:16.287Z,79.01
2018-10-19T00:33:44.399Z,79.31
2018-10-19T00:36:12.512Z,79.96
2018-10-19T00:38:40.585Z,79.07
2018-10-19T00:41:08.743Z,79.51
2018-10-19T00:43:36.805Z,79.90
2018-10-19T00:46:05.311Z,79.43
2018-10-19T00:48:33.435Z,79.26
2018-10-19T00:51:01.573Z,79.72
2018-10-19T00:53:29.646Z,79.13
2018-10-19T00:55:57.727Z,79.88
2018-10-19T00:58:25.880Z,79.24
2018-10-19T01:00:53.967Z,79.64
2018-10-19T01:03:22.076Z,80.03
2018-10-19T01:05:50.151Z,80.34
2018-10-19T01:08:18.247Z,80.15
2018-10-19T01:10:46.367Z,81.03
2018-10-19T01:13:14.465Z,79.95
2018-10-19T01:15:42.548Z,80.72
2018-10-19T01:18:10.649Z,80.37
2018-10-19T01:20:38.747Z,80.13
2018-10-19T01:23:06.891Z,80.74
2018-10-19T01:25:34.972Z,80.49
2018-10-19T01:28:03.157Z,80.58
2018-10-19T01:30:31.333Z,80.01
2018-10-19T01:32:59.463Z,80.63
2018-10-19T01:35:27.632Z,80.87
2018-10-19T01:37:55.768Z,81.17
2018-10-19T01:40:23.869Z,81.27
2018-10-19T01:42:51.975Z,81.25
2018-10-19T01:45:20.078Z,81.62
2018-10-19T01:47:48.187Z,81.37
2018-10-19T01:50:16.291Z,81.57
2018-10-19T01:52:44.389Z,82.02
2018-10-19T01:55:12.470Z,81.73
2018-10-19T01:57:40.565Z,81.68
2018-10-19T02:00:08.683Z,81.78
2018-10-19T02:02:36.779Z,82.00
2018-10-19T02:05:04.924Z,82.38
2018-10-19T02:07:32.999Z,81.91
2018-10-19T02:10:01.191Z,81.48
2018-10-19T02:12:29.392Z,81.36
2018-10-19T02:14:57.657Z,81.84
2018-10-19T02:17:25.722Z,81.64
2018-10-19T02:19:53.818Z,82.34
2018-10-19T02:22:21.925Z,81.58
2018-10-19T02:24:50.046Z,82.06
2018-10-19T02:27:18.144Z,82.10
2018-10-19T02:29:46.261Z,82.23
2018-10-19T02:32:14.371Z,82.12
2018-10-19T02:34:42.490Z,82.37
2018-10-19T02:37:10.604Z,82.09
2018-10-19T02:39:38.722Z,82.66
2018-10-19T02:42:06.836Z,82.34
2018-10-19T02:44:34.969Z,82.81
2018-10-19T02:47:03.081Z,83.07
2018-10-19T02:49:31.225Z,82.26
2018-10-19T02:51:59.305Z,82.12
2018-10-19T02:54:27.413Z,82.42
2018-10-19T02:56:55.577Z,83.06
2018-10-19T02:59:23.665Z,82.35
2018-10-19T03:01:51.755Z,82.59
2018-10-19T03:04:19.877Z,83.60
2018-10-19T03:06:47.964Z,83.22
2018-10-19T03:09:16.099Z,83.28
2018-10-19T03:11:44.197Z,82.37
2018-10-19T03:14:12.274Z,82.46
2018-10-19T03:16:40.355Z,83.16
2018-10-19T03:19:08.836Z,82.90
2018-10-19T03:21:36.974Z,82.95
2018-10-19T03:24:05.173Z,83.17
2018-10-19T03:26:33.307Z,83.03
2018-10-19T03:29:01.461Z,82.72
2018-10-19T03:31:29.588Z,82.90
2018-10-19T03:33:57.791Z,82.75
2018-10-19T03:36:25.893Z,82.64
2018-10-19T03:38:54.222Z,82.35
2018-10-19T03:41:22.358Z,82.69
2018-10-19T03:43:50.483Z,83.20
2018-10-19T03:46:18.742Z,82.52
2018-10-19T03:48:46.839Z,83.06
2018-10-19T03:51:15.190Z,82.41
2018-10-19T03:53:43.299Z,82.46
2018-10-19T03:56:11.463Z,82.77
2018-10-19T03:58:39.579Z,83.51
2018-10-19T04:01:07.783Z,82.23
2018-10-19T04:03:36.084Z,82.64
2018-10-19T04:06:04.222Z,82.03
2018-10-19T04:08:32.343Z,82.10
2018-10-19T04:11:00.483Z,82.06
2018-10-19T04:13:28.804Z,81.66
2018-10-19T04:15:56.912Z,81.97
2018-10-19T04:18:25.056Z,82.63
2018-10-19T04:20:53.405Z,82.81
2018-10-19T04:23:21.456Z,81.88
2018-10-19T04:25:49.689Z,82.73
2018-10-19T04:28:17.835Z,81.94
2018-10-19T04:30:45.991Z,82.96
2018-10-19T04:33:14.287Z,82.89
2018-10-19T04:35:42.339Z,82.34
2018-10-19T04:38:10.514Z,82.24
2018-10-19T04:40:38.636Z,82.95
2018-10-19T04:43:06.811Z,81.92
2018-10-19T04:45:34.916Z,82.08
2018-10-19T04:48:03.040Z,81.70
2018-10-19T04:50:31.164Z,82.72
2018-10-19T04:52:59.296Z,81.85
2018-10-19T04:55:27.408Z,82.03
2018-10-19T04:57:55.517Z,82.62
2018-10-19T05:00:23.674Z,81.94
2018-10-19T05:02:52.231Z,82.03
2018-10-19T05:05:20.780Z,82.43
2018-10-19T05:07:48.620Z,82.56
2018-10-19T05:10:16.719Z,82.46
2018-10-19T05:12:44.901Z,81.90
2018-10-19T05:15:12.977Z,82.18
2018-10-19T05:17:41.115Z,82.21
2018-10-19T05:20:11.088Z,82.21
2018-10-19T05:22:39.270Z,82.63
2018-10-19T05:25:09.264Z,82.29
2018-10-19T05:27:37.447Z,82.69
2018-10-19T05:30:07.057Z,82.04
2018-10-19T05:32:35.151Z,82.19
2018-10-19T05:35:03.351Z,81.77
2018-10-19T05:37:31.951Z,82.04
2018-10-19T05:40:00.575Z,82.82
2018-10-19T05:42:28.719Z,83.18
2018-10-19T05:44:56.857Z,83.17
2018-10-19T05:47:25.049Z,83.31
2018-10-19T05:49:53.160Z,83.17
2018-10-19T05:52:21.279Z,83.19
2018-10-19T05:54:49.383Z,83.05
2018-10-19T05:57:17.564Z,82.71
2018-10-19T05:59:45.683Z,82.60
2018-10-19T06:02:13.926Z,82.41
2018-10-19T06:04:41.945Z,83.23
2018-10-19T06:07:10.081Z,83.45
2018-10-19T06:09:38.192Z,83.56
2018-10-19T06:12:06.536Z,83.56
2018-10-19T06:14:34.644Z,83.67
2018-10-19T06:17:02.896Z,84.18
2018-10-19T06:19:30.963Z,84.34
2018-10-19T06:21:59.139Z,83.83
2018-10-19T06:24:27.304Z,84.09
2018-10-19T06:26:55.476Z,83.52
2018-10-19T06:29:23.608Z,83.46
2018-10-19T06:31:51.758Z,83.44
2018-10-19T06:34:19.900Z,84.13
2018-10-19T06:36:48.015Z,83.58
2018-10-19T06:39:16.131Z,84.57
2018-10-19T06:41:44.236Z,84.10
2018-10-19T06:44:12.401Z,84.00
2018-10-19T06:46:40.476Z,84.53
2018-10-19T06:49:08.636Z,83.97
2018-10-19T06:51:36.868Z,83.86
2018-10-19T06:54:05.150Z,84.48
2018-10-19T06:56:33.267Z,84.32
2018-10-19T06:59:01.483Z,84.06
2018-10-19T07:01:29.507Z,83.80
2018-10-19T07:03:57.657Z,83.31
2018-10-19T07:06:25.776Z,83.47
2018-10-19T07:08:53.961Z,84.27
2018-10-19T07:11:22.284Z,83.64
2018-10-19T07:13:50.387Z,83.78
2018-10-19T07:16:18.497Z,83.66
2018-10-19T07:18:46.667Z,84.55
2018-10-19T07:21:14.719Z,83.86
2018-10-19T07:23:42.828Z,83.58
2018-10-19T07:26:10.979Z,83.82
2018-10-19T07:28:45.801Z,83.87
2018-10-19T07:31:13.967Z,84.02
2018-10-19T07:33:42.088Z,83.04
2018-10-19T07:36:10.207Z,83.04
2018-10-19T07:38:38.330Z,83.50
2018-10-19T07:41:06.570Z,83.68
2018-10-19T07:43:34.640Z,83.27
2018-10-19T07:46:02.763Z,82.84
2018-10-19T07:48:30.897Z,82.22
2018-10-19T07:50:58.989Z,82.11
2018-10-19T07:53:27.171Z,82.01
2018-10-19T07:55:55.328Z,82.01
2018-10-19T07:58:23.418Z,81.99
2018-10-19T08:00:51.556Z,81.09
2018-10-19T08:03:19.644Z,82.02
2018-10-19T08:05:47.837Z,81.49
2018-10-19T08:08:15.930Z,80.76
2018-10-19T08:10:44.124Z,80.87
2018-10-19T08:13:12.199Z,80.33
2018-10-19T08:15:40.305Z,80.35
2018-10-19T08:18:08.498Z,80.59
2018-10-19T08:20:36.607Z,79.74
2018-10-19T08:23:04.827Z,79.02
2018-10-19T08:25:32.896Z,79.50
2018-10-19T08:28:01.076Z,79.85
2018-10-19T08:30:29.223Z,79.64
2018-10-19T08:32:57.372Z,78.67
2018-10-19T08:35:25.495Z,79.26
2018-10-19T08:37:53.692Z,79.18
2018-10-19T08:40:21.803Z,78.23
2018-10-19T08:42:49.908Z,78.66
2018-10-19T08:45:18.177Z,78.02
2018-10-19T08:47:46.245Z,78.36
2018-10-19T08:50:14.284Z,77.46
2018-10-19T08:52:42.399Z,77.38
2018-10-19T08:55:10.539Z,77.48
2018-10-19T08:57:38.672Z,77.62
2018-10-19T09:00:08.680Z,76.81
2018-10-19T09:02:36.776Z,76.26
2018-10-19T09:05:05.063Z,76.15
2018-10-19T09:07:33.165Z,75.94
2018-10-19T09:10:01.260Z,76.28
2018-10-19T09:12:29.379Z,75.62
2018-10-19T09:14:59.893Z,76.02
2018-10-19T09:17:27.979Z,76.20
2018-10-19T09:19:56.087Z,75.79
2018-10-19T09:22:24.195Z,74.90
2018-10-19T09:24:52.585Z,75.06
2018-10-19T09:27:20.888Z,75.66
2018-10-19T09:29:49.023Z,75.25
2018-10-19T09:32:17.575Z,75.29
2018-10-19T09:34:45.743Z,75.75
2018-10-19T09:37:14.238Z,75.73
2018-10-19T09:39:42.339Z,74.71
2018-10-19T09:42:10.995Z,74.19
2018-10-19T09:44:39.040Z,73.30
2018-10-19T09:47:07.410Z,74.18
2018-10-19T09:49:35.491Z,73.41
2018-10-19T09:52:03.611Z,74.04
2018-10-19T09:54:31.795Z,72.98
2018-10-19T09:56:59.954Z,72.93
2018-10-19T09:59:28.003Z,73.52
2018-10-19T10:01:56.122Z,73.78
2018-10-19T10:04:24.227Z,72.66
2018-10-19T10:06:52.320Z,72.37
2018-10-19T10:09:20.445Z,72.24
2018-10-19T10:11:48.556Z,72.61
2018-10-19T10:14:16.675Z,71.36
2018-10-19T10:16:44.770Z,71.42
2018-10-19T10:19:12.926Z,70.88
2018-10-19T10:21:40.977Z,71.26
2018-10-19T10:24:09.075Z,71.46
2018-10-19T10:26:37.170Z,70.71
2018-10-19T10:29:05.739Z,70.20
2018-10-19T10:31:33.848Z,70.72
2018-10-19T10:34:02.102Z,70.15
2018-10-19T10:36:30.155Z,70.59
2018-10-19T10:38:58.352Z,70.11
2018-10-19T10:41:26.537Z,70.52
2018-10-19T10:43:54.812Z,69.21
2018-10-19T10:46:22.958Z,70.21
2018-10-19T10:48:51.113Z,70.68
2018-10-19T10:51:19.214Z,69.36
2018-10-19T10:53:47.321Z,69.76
2018-10-19T10:56:15.432Z,69.55
2018-10-19T10:58:43.545Z,69.57
2018-10-19T11:01:11.718Z,68.46
2018-10-19T11:03:39.730Z,68.75
2018-10-19T11:06:07.830Z,69.26
2018-10-19T11:08:35.935Z,69.02
2018-10-19T11:11:07.475Z,67.99
2018-10-19T11:13:35.688Z,68.64
2018-10-19T11:16:03.839Z,68.42
2018-10-19T11:18:31.920Z,67.93
2018-10-19T11:21:00.049Z,68.34
2018-10-19T11:23:28.148Z,68.08
2018-10-19T11:25:56.251Z,67.66
2018-10-19T11:28:24.351Z,67.67
2018-10-19T11:30:52.513Z,68.06
2018-10-19T11:33:20.716Z,67.43
2018-10-19T11:35:48.833Z,68.02
2018-10-19T11:38:16.929Z,67.34
2018-10-19T11:40:45.048Z,66.83
2018-10-19T11:43:13.228Z,66.59
2018-10-19T11:45:41.316Z,66.16
2018-10-19T11:48:09.427Z,66.70
2018-10-19T11:50:37.549Z,65.91
2018-10-19T11:53:05.737Z,66.29
2018-10-19T11:55:33.841Z,65.94
2018-10-19T11:58:01.971Z,65.68
2018-10-19T12:00:30.051Z,65.93
2018-10-19T12:02:58.156Z,66.13
2018-10-19T12:05:26.254Z,65.98
2018-10-19T12:07:54.352Z,65.72
2018-10-19T12:10:22.462Z,66.31
2018-10-19T12:12:50.568Z,65.80
2018-10-19T12:15:18.844Z,65.29
2018-10-19T12:17:47.071Z,65.10
2018-10-19T12:20:17.511Z,64.43
2018-10-19T12:22:45.606Z,64.14
2018-10-19T12:25:14.640Z,64.47
2018-10-19T12:27:42.844Z,64.64
2018-10-19T12:30:11.653Z,63.52
2018-10-19T12:32:40.143Z,63.64
2018-10-19T12:35:09.864Z,63.92
2018-10-19T12:37:38.039Z,63.37
2018-10-19T12:40:06.999Z,62.95
2018-10-19T12:42:35.405Z,62.61
2018-10-19T12:45:03.597Z,62.37
2018-10-19T12:47:38.592Z,62.45
2018-10-19T12:50:13.300Z,61.81
2018-10-19T12:52:41.406Z,61.98
2018-10-19T12:55:09.551Z,62.32
2018-10-19T12:57:37.710Z,62.24
2018-10-19T13:00:07.026Z,62.08
2018-10-19T13:02:35.141Z,61.88
2018-10-19T13:05:03.287Z,62.31
2018-10-19T13:07:31.411Z,61.39
2018-10-19T13:09:59.529Z,62.35
2018-10-19T13:12:27.640Z,62.53
2018-10-19T13:14:55.751Z,62.04
2018-10-19T13:17:23.848Z,62.71
2018-10-19T13:19:51.950Z,62.78
2018-10-19T13:22:20.071Z,62.03
2018-10-19T13:24:48.168Z,62.20
2018-10-19T13:27:16.326Z,61.47
2018-10-19T13:29:44.356Z,62.56
2018-10-19T13:32:12.480Z,61.99
2018-10-19T13:34:40.606Z,61.60
2018-10-19T13:37:08.734Z,61.75
2018-10-19T13:39:36.872Z,62.14
2018-10-19T13:42:05.107Z,61.95
2018-10-19T13:44:33.224Z,61.99
2018-10-19T13:47:01.348Z,61.45
2018-10-19T13:49:29.548Z,60.66
2018-10-19T13:51:57.700Z,61.43
2018-10-19T13:54:25.819Z,61.50
2018-10-19T13:56:53.959Z,62.52
2018-10-19T13:59:22.041Z,62.75
2018-10-19T14:01:50.147Z,62.94
2018-10-19T14:04:18.237Z,61.87
2018-10-19T14:06:46.318Z,62.61
2018-10-19T14:09:14.498Z,62.12
2018-10-19T14:11:42.560Z,61.95
2018-10-19T14:14:10.657Z,63.09
2018-10-19T14:16:38.776Z,62.21
2018-10-19T14:19:06.911Z,62.81
2018-10-19T14:21:35.022Z,61.83
2018-10-19T14:24:03.140Z,61.74
2018-10-19T14:26:31.367Z,61.84
2018-10-19T14:28:59.463Z,62.17
2018-10-19T14:31:27.573Z,61.49
2018-10-19T14:33:55.655Z,61.39
2018-10-19T14:36:23.858Z,61.36
2018-10-19T14:38:51.946Z,60.91
2018-10-19T14:41:20.048Z,61.24
2018-10-19T14:43:48.140Z,61.60
2018-10-19T14:46:16.262Z,61.88
2018-10-19T14:48:44.412Z,60.82
2018-10-19T14:51:12.528Z,61.16
2018-10-19T14:53:40.575Z,60.90
2018-10-19T14:56:08.729Z,61.22
2018-10-19T14:58:36.844Z,60.91
2018-10-19T15:01:05.287Z,61.63
2018-10-19T15:03:33.379Z,60.76
2018-10-19T15:06:01.693Z,61.67
2018-10-19T15:08:29.798Z,61.21
2018-10-19T15:10:58.193Z,62.14
2018-10-19T15:13:26.100Z,62.00
2018-10-19T15:15:54.253Z,61.34
2018-10-19T15:18:22.392Z,61.24
2018-10-19T15:20:50.557Z,61.91
2018-10-19T15:23:18.694Z,61.25
2018-10-19T15:25:46.814Z,61.51
2018-10-19T15:28:14.937Z,61.56
2018-10-19T15:30:43.064Z,61.53
2018-10-19T15:33:11.279Z,61.45
2018-10-19T15:35:39.383Z,62.28
2018-10-19T15:38:07.527Z,62.24
2018-10-19T15:40:35.782Z,62.38
2018-10-19T15:43:03.990Z,62.37
2018-10-19T15:45:32.104Z,63.07
2018-10-19T15:48:00.222Z,63.14
2018-10-19T15:50:28.312Z,63.37
2018-10-19T15:52:56.483Z,63.64
2018-10-19T15:55:24.564Z,63.53
2018-10-19T15:57:52.767Z,63.04
2018-10-19T16:00:21.031Z,63.40
2018-10-19T16:02:49.045Z,63.25
2018-10-19T16:05:17.176Z,63.25
2018-10-19T16:07:45.463Z,64.37
2018-10-19T16:10:13.684Z,63.66
2018-10-19T16:12:41.739Z,63.86
2018-10-19T16:15:10.634Z,64.75
2018-10-19T16:17:38.818Z,64.51
2018-10-19T16:20:08.464Z,65.19
2018-10-19T16:22:36.596Z,65.15
2018-10-19T16:25:05.989Z,64.50
2018-10-19T16:27:34.217Z,65.24
2018-10-19T16:30:02.307Z,64.90
2018-10-19T16:32:30.353Z,66.10
2018-10-19T16:34:58.545Z,66.18
2018-10-19T16:37:26.712Z,65.94
2018-10-19T16:39:54.887Z,65.99
2018-10-19T16:42:23.024Z,65.89
2018-10-19T16:44:51.106Z,66.32
2018-10-19T16:47:19.249Z,66.86
2018-10-19T16:49:47.407Z,67.17
2018-10-19T16:52:15.608Z,67.35
2018-10-19T16:54:43.636Z,68.30
2018-10-19T16:57:11.818Z,68.42
2018-10-19T16:59:39.867Z,68.12
2018-10-19T17:02:31.195Z,68.12
2018-10-19T17:05:02.673Z,68.50
2018-10-19T17:07:34.741Z,68.45
2018-10-19T17:10:05.962Z,69.20
2018-10-19T17:15:25.229Z,69.50
2018-10-19T17:17:53.825Z,69.27
2018-10-19T17:20:22.646Z,70.18
2018-10-19T17:22:52.803Z,70.10
2018-10-19T17:25:21.976Z,69.62
2018-10-19T17:27:50.561Z,69.61
2018-10-19T17:30:19.895Z,69.87
2018-10-19T17:32:49.779Z,70.82
2018-10-19T17:35:18.121Z,70.13
2018-10-19T17:37:48.255Z,70.52
2018-10-19T17:40:17.457Z,71.25
2018-10-19T17:42:46.827Z,70.65
2018-10-19T17:45:15.171Z,71.28
2018-10-19T17:47:43.434Z,71.33
2018-10-19T17:50:11.710Z,71.83
2018-10-19T17:52:40.477Z,71.38
2018-10-19T17:55:13.496Z,71.36
2018-10-19T17:57:43.649Z,71.78
2018-10-19T18:00:13.067Z,71.66
2018-10-19T18:02:41.801Z,72.16
2018-10-19T18:05:11.203Z,74.75
2018-10-19T18:07:40.513Z,75.74
2018-10-19T18:10:08.869Z,75.84
2018-10-19T18:12:37.795Z,77.15
2018-10-19T18:15:06.872Z,75.60
2018-10-19T18:17:36.095Z,74.75
2018-10-19T18:20:06.403Z,75.21
2018-10-19T18:22:35.177Z,74.89
2018-10-19T18:25:03.574Z,73.92
2018-10-19T18:27:31.850Z,74.88
2018-10-19T18:30:01.201Z,75.13
2018-10-19T18:32:30.924Z,74.86
2018-10-19T18:34:59.526Z,74.43
2018-10-19T18:37:28.513Z,75.84
2018-10-19T18:39:57.624Z,74.67
2018-10-19T18:42:28.943Z,75.27
2018-10-19T18:44:58.171Z,75.53
2018-10-19T18:47:27.969Z,75.58
2018-10-19T18:49:57.450Z,75.76
2018-10-19T18:52:26.513Z,74.88
2018-10-19T18:54:54.829Z,74.96
2018-10-19T18:57:25.824Z,75.82
2018-10-19T18:59:54.301Z,75.90
2018-10-19T19:02:31.268Z,75.33
2018-10-19T19:04:59.777Z,75.69
2018-10-19T19:07:30.188Z,74.99
2018-10-19T19:10:04.911Z,74.39
2018-10-19T19:12:33.514Z,74.41
2018-10-19T19:15:02.109Z,75.57
2018-10-19T19:17:30.786Z,76.29
2018-10-19T19:20:32.889Z,76.20
2018-10-19T19:23:01.702Z,76.92
2018-10-19T19:26:39.254Z,76.74
2018-10-19T19:29:09.083Z,77.16
2018-10-19T19:31:41.889Z,77.29
2018-10-19T19:34:15.480Z,75.95
2018-10-19T19:36:47.853Z,75.64
2018-10-19T19:39:17.328Z,74.98
2018-10-19T19:41:52.569Z,75.34
2018-10-19T19:44:24.121Z,74.60
2018-10-19T19:46:53.152Z,75.03
2018-10-19T19:49:27.654Z,74.86
2018-10-19T19:51:56.216Z,74.88
2018-10-19T19:54:25.091Z,74.76
2018-10-19T19:56:54.722Z,74.94
2018-10-19T19:59:24.412Z,76.09
2018-10-19T20:01:53.677Z,76.48
2018-10-19T20:04:22.708Z,76.21
2018-10-19T20:06:52.538Z,77.25
2018-10-19T20:09:21.742Z,76.12
2018-10-19T20:11:50.125Z,75.99
2018-10-19T20:14:18.634Z,75.51
2018-10-19T20:16:49.570Z,75.27
2018-10-19T20:19:17.928Z,74.61
2018-10-19T20:21:46.925Z,74.60
2018-10-19T20:24:16.212Z,75.30
2018-10-19T20:26:49.154Z,75.04
2018-10-19T20:29:19.462Z,74.28
2018-10-19T20:31:49.225Z,74.16
2018-10-19T20:34:18.408Z,74.75
2018-10-19T20:36:47.336Z,75.04
2018-10-19T20:39:17.309Z,75.32
2018-10-19T20:41:46.879Z,75.46
2018-10-19T20:44:17.808Z,75.11
2018-10-19T20:46:48.247Z,74.71
2018-10-19T20:49:17.768Z,75.12
2018-10-19T20:51:51.694Z,74.41
2018-10-19T20:54:21.204Z,74.81
2018-10-19T20:56:56.497Z,74.88
2018-10-19T20:59:28.801Z,74.93
2018-10-19T21:02:01.271Z,75.74
2018-10-19T21:04:33.753Z,76.22
2018-10-19T21:07:03.431Z,75.92
2018-10-19T21:09:32.418Z,76.11
2018-10-19T21:12:00.666Z,76.74
2018-10-19T21:14:30.769Z,77.33
2018-10-19T21:16:59.472Z,77.41
2018-10-19T21:19:31.019Z,78.26
2018-10-19T21:22:02.871Z,79.23
2018-10-19T21:24:32.580Z,80.65
2018-10-19T21:27:01.687Z,81.41
2018-10-19T21:29:30.902Z,81.62
2018-10-19T21:31:59.710Z,81.54
2018-10-19T21:34:29.842Z,82.84
2018-10-19T21:37:00.055Z,83.92
2018-10-19T21:39:28.340Z,81.91
2018-10-19T21:41:59.467Z,81.25
2018-10-19T21:44:29.599Z,80.72
2018-10-19T21:46:58.651Z,80.21
2018-10-19T21:49:28.879Z,80.83
2018-10-19T21:51:58.671Z,81.87
2018-10-19T21:54:27.847Z,83.64
2018-10-19T21:56:56.466Z,83.99
2018-10-19T21:59:24.783Z,85.79
2018-10-19T22:01:53.868Z,87.16
2018-10-19T22:04:28.400Z,87.66
2018-10-19T22:06:59.104Z,88.12
2018-10-19T22:09:29.141Z,88.22
2018-10-19T22:11:58.460Z,88.49
2018-10-19T22:14:27.920Z,89.03
2018-10-19T22:16:56.842Z,89.10
2018-10-19T22:19:25.114Z,89.01
2018-10-19T22:21:53.590Z,88.23
2018-10-19T22:24:22.214Z,89.48
2018-10-19T22:26:51.872Z,88.74
2018-10-19T22:29:20.809Z,89.35
2018-10-19T22:31:49.630Z,89.28
2018-10-19T22:34:18.359Z,89.73
2018-10-19T22:36:46.718Z,89.87
2018-10-19T22:39:15.638Z,90.21
2018-10-19T22:41:45.043Z,89.63
2018-10-19T22:44:14.562Z,89.85
2018-10-19T22:46:45.262Z,89.59
2018-10-19T22:49:14.886Z,90.04
2018-10-19T22:51:45.613Z,89.49
2018-10-19T22:54:14.343Z,88.70
2018-10-19T22:56:43.945Z,88.11
2018-10-19T22:59:12.196Z,87.81
2018-10-19T23:01:43.011Z,88.11
2018-10-19T23:04:12.360Z,86.89
2018-10-19T23:06:44.831Z,86.46
2018-10-19T23:09:13.914Z,86.23
2018-10-19T23:11:42.288Z,86.59
2018-10-19T23:14:11.548Z,86.61
2018-10-19T23:16:39.778Z,86.47
2018-10-19T23:19:08.574Z,85.55
2018-10-19T23:21:36.636Z,85.98
2018-10-19T23:24:05.363Z,85.06
2018-10-19T23:26:33.483Z,84.91
2018-10-19T23:29:01.670Z,85.11
2018-10-19T23:31:29.969Z,84.82
2018-10-19T23:33:57.836Z,83.75
2018-10-19T23:36:26.061Z,83.57
2018-10-19T23:38:54.180Z,83.12
2018-10-19T23:41:22.268Z,84.89
2018-10-19T23:43:50.461Z,86.03
2018-10-19T23:46:18.519Z,86.31
2018-10-19T23:48:46.627Z,86.19
2018-10-19T23:51:14.736Z,86.30
2018-10-19T23:53:42.836Z,87.21
2018-10-19T23:56:10.935Z,87.69
2018-10-19T23:58:39.036Z,87.85
